Terminal Aerodrome Forecast
Issued by NWS Cleveland, OH

Home | Current Version | Previous Version | Text Only | Print | Product List | Glossary On
Versions: 1 2 3 4 5 6 7 8 9 10 11 12 13 14 15 16 17 18 19 20 21 22
502
FTUS41 KCLE 120520
TAFERI
TAF
KERI 120520Z 1206/1306 23008KT P6SM VCSH OVC035
      TEMPO 1206/1210 4SM -SHSN BKN025
     FM121500 23014G20KT P6SM BKN035
     FM122100 25014G22KT 3SM -SHSN OVC020
     FM130200 31016G24KT 2SM -SHSN OVC012=

USA.gov is the U.S. government's official web portal to all federal, state and local government web resources and services.